Time;durP1;ratioP1;P1;durP2;ratioP2;P2;SDS_P1;SDS_P2;PMS_P1;PMS_P2;Temp;Humidity;BMP_temperature;BMP_pressure;BME280_temperature;BME280_humidity;BME280_pressure;Samples;Min_cycle;Max_cycle;Signal;HPM_P1;HPM_P2
2021/12/17 00:01:01;;;;;;;10.60;5.17;;;3.30;99.90;;;;;;5054504;28;20028;-85
2021/12/17 00:03:35;;;;;;;13.73;6.17;;;3.40;99.90;;;;;;5054827;28;20025;-85
2021/12/17 00:08:38;;;;;;;13.47;6.17;;;3.40;99.90;;;;;;5072707;28;20158;-86
2021/12/17 00:11:06;;;;;;;13.67;5.43;;;3.50;99.90;;;;;;5054477;28;20048;-86
2021/12/17 00:13:33;;;;;;;15.30;6.17;;;3.60;99.90;;;;;;5054336;28;20147;-85
2021/12/17 00:16:00;;;;;;;14.33;6.47;;;3.60;99.90;;;;;;5047967;28;20036;-86
2021/12/17 00:18:34;;;;;;;15.37;5.93;;;3.70;99.90;;;;;;5054725;28;20016;-87
2021/12/17 00:40:32;;;;;;;13.60;6.10;;;3.90;99.90;;;;;;5062406;28;20079;-83
2021/12/17 00:48:46;;;;;;;14.40;6.93;;;4.00;99.90;;;;;;5059632;28;20089;-83
2021/12/17 00:54:29;;;;;;;12.87;5.40;;;4.00;99.90;;;;;;5037803;28;20021;-84
2021/12/17 00:56:57;;;;;;;13.97;5.80;;;4.00;99.90;;;;;;5025254;28;20022;-83
2021/12/17 00:59:23;;;;;;;16.07;5.93;;;4.00;99.90;;;;;;5040536;28;20024;-84
2021/12/17 01:01:52;;;;;;;13.23;5.77;;;4.00;99.90;;;;;;5066273;28;20032;-84
2021/12/17 01:04:17;;;;;;;18.13;7.03;;;3.90;99.90;;;;;;5060721;28;20075;-83
2021/12/17 01:06:43;;;;;;;13.07;5.70;;;3.80;99.90;;;;;;5044977;28;20021;-84
2021/12/17 01:09:12;;;;;;;11.97;5.73;;;3.90;99.90;;;;;;5062741;28;20105;-84
2021/12/17 01:11:38;;;;;;;15.97;6.10;;;3.80;99.90;;;;;;5061847;28;20029;-84
2021/12/17 01:14:05;;;;;;;13.00;6.37;;;3.80;99.90;;;;;;5043298;28;20029;-84
2021/12/17 01:16:31;;;;;;;12.83;6.43;;;3.70;99.90;;;;;;5042602;28;20033;-84
2021/12/17 01:19:12;;;;;;;14.00;6.67;;;3.60;99.90;;;;;;5043203;28;20037;-83
2021/12/17 01:25:10;;;;;;;14.77;6.73;;;3.50;99.90;;;;;;5059844;28;20025;-83
2021/12/17 01:35:28;;;;;;;14.00;6.83;;;3.60;99.90;;;;;;5059978;28;20496;-83
2021/12/17 01:43:15;;;;;;;18.07;8.07;;;3.80;99.90;;;;;;5058599;28;20028;-84
2021/12/17 01:45:42;;;;;;;17.50;7.70;;;3.90;99.90;;;;;;5040902;28;20021;-82
2021/12/17 01:48:13;;;;;;;16.03;7.80;;;3.90;99.90;;;;;;5040827;28;20028;-84
2021/12/17 01:56:30;;;;;;;16.83;6.83;;;4.10;99.90;;;;;;5057323;28;20511;-83
2021/12/17 02:01:41;;;;;;;15.47;7.50;;;4.20;99.90;;;;;;5059347;28;20107;-84
2021/12/17 02:04:06;;;;;;;16.33;7.40;;;4.30;99.90;;;;;;5058352;28;20021;-84
2021/12/17 02:06:37;;;;;;;13.80;7.07;;;4.20;99.90;;;;;;5040433;28;20029;-84
2021/12/17 02:31:31;;;;;;;14.88;7.20;;;4.40;99.90;;;;;;5058779;28;20024;-84
2021/12/17 02:34:18;;;;;;;13.07;6.80;;;4.40;99.90;;;;;;5058618;28;20102;-82
2021/12/17 02:36:45;;;;;;;16.90;6.93;;;4.50;99.90;;;;;;5060058;28;20029;-83
2021/12/17 02:47:23;;;;;;;13.10;7.07;;;4.50;99.90;;;;;;5063622;28;20036;-84
2021/12/17 02:49:49;;;;;;;12.03;5.90;;;4.50;99.90;;;;;;5049993;28;20111;-83
2021/12/17 02:52:15;;;;;;;12.03;5.40;;;4.60;99.90;;;;;;5065200;28;20108;-83
2021/12/17 02:54:42;;;;;;;13.00;6.30;;;4.60;99.90;;;;;;5046161;28;20021;-83
2021/12/17 02:57:10;;;;;;;14.60;6.17;;;4.60;99.90;;;;;;5041338;28;20473;-83
2021/12/17 02:59:37;;;;;;;9.83;5.23;;;4.60;99.90;;;;;;5042457;28;20035;-83
2021/12/17 03:02:04;;;;;;;12.53;5.70;;;4.60;99.90;;;;;;5056339;28;20039;-82
2021/12/17 03:04:33;;;;;;;10.27;5.40;;;4.60;99.90;;;;;;5060314;28;20025;-83
2021/12/17 03:06:59;;;;;;;10.77;4.60;;;4.60;99.90;;;;;;5041576;28;20369;-83
2021/12/17 03:09:45;;;;;;;11.50;4.57;;;4.60;99.90;;;;;;5041418;28;20097;-83
2021/12/17 03:12:17;;;;;;;9.80;4.37;;;4.70;99.90;;;;;;5057141;28;20028;-83
2021/12/17 03:14:51;;;;;;;10.67;5.00;;;4.70;99.90;;;;;;5041674;28;20166;-82
2021/12/17 03:17:30;;;;;;;12.17;5.20;;;4.70;99.90;;;;;;5057000;28;20115;-83
2021/12/17 03:25:06;;;;;;;10.77;5.17;;;4.80;99.90;;;;;;5058038;28;20047;-83
2021/12/17 03:27:32;;;;;;;11.17;5.00;;;4.80;99.90;;;;;;5040353;28;20045;-83
2021/12/17 03:29:58;;;;;;;10.87;4.73;;;4.70;99.90;;;;;;5057292;28;20079;-83
2021/12/17 03:32:24;;;;;;;10.63;5.03;;;4.80;99.90;;;;;;5055794;28;20025;-83
2021/12/17 03:34:50;;;;;;;9.70;4.53;;;4.80;99.90;;;;;;5056424;28;20028;-82
2021/12/17 03:37:16;;;;;;;9.83;4.67;;;4.80;99.90;;;;;;5039081;28;20558;-84
2021/12/17 03:39:42;;;;;;;11.97;5.90;;;4.80;99.90;;;;;;5039555;28;20028;-82
2021/12/17 03:42:09;;;;;;;12.70;4.73;;;4.80;99.90;;;;;;5038321;28;20025;-83
2021/12/17 03:44:35;;;;;;;9.03;4.50;;;4.80;99.90;;;;;;5039081;28;20013;-83
2021/12/17 03:47:02;;;;;;;9.93;4.90;;;4.80;99.90;;;;;;5038803;28;20025;-83
2021/12/17 03:49:28;;;;;;;9.83;4.40;;;4.80;99.90;;;;;;5055921;28;20013;-84
2021/12/17 03:52:04;;;;;;;7.47;4.53;;;4.80;99.90;;;;;;5039403;28;20506;-83
2021/12/17 03:54:35;;;;;;;9.07;4.27;;;4.80;99.90;;;;;;5039067;28;20095;-83
2021/12/17 03:57:04;;;;;;;11.07;5.23;;;4.80;99.90;;;;;;5056347;28;20027;-82
2021/12/17 03:59:30;;;;;;;9.60;4.33;;;4.90;99.90;;;;;;5038783;28;20032;-82
2021/12/17 04:01:56;;;;;;;8.93;4.50;;;4.80;99.90;;;;;;5038467;28;20032;-82
2021/12/17 04:04:21;;;;;;;9.03;4.43;;;4.80;99.90;;;;;;5055165;28;20088;-82
2021/12/17 04:06:47;;;;;;;10.47;5.10;;;4.80;99.90;;;;;;5056707;28;20499;-82
2021/12/17 04:09:13;;;;;;;9.43;4.57;;;4.80;99.90;;;;;;5037961;28;20448;-82
2021/12/17 04:11:38;;;;;;;10.10;4.77;;;4.90;99.90;;;;;;5038926;28;20041;-82
2021/12/17 04:14:04;;;;;;;8.67;4.33;;;4.90;99.90;;;;;;5037792;28;20037;-82
2021/12/17 04:16:32;;;;;;;10.87;3.83;;;4.80;99.90;;;;;;5056650;28;20029;-83
2021/12/17 04:18:59;;;;;;;11.77;5.13;;;4.90;99.90;;;;;;5057602;28;20025;-81
2021/12/17 04:21:25;;;;;;;9.33;4.80;;;4.90;99.90;;;;;;5057012;28;20029;-82
2021/12/17 04:23:53;;;;;;;11.07;4.73;;;4.80;99.90;;;;;;5038258;28;20025;-82
2021/12/17 04:26:20;;;;;;;11.10;4.97;;;4.80;99.90;;;;;;5037789;28;20025;-83
2021/12/17 04:28:49;;;;;;;9.80;4.33;;;4.80;99.90;;;;;;5039174;28;20025;-82
2021/12/17 04:31:17;;;;;;;8.93;4.97;;;4.80;99.90;;;;;;5040446;28;20366;-82
2021/12/17 04:33:44;;;;;;;7.80;3.93;;;4.80;99.90;;;;;;5050662;28;20029;-83
2021/12/17 04:36:18;;;;;;;7.70;3.60;;;4.80;99.90;;;;;;5038149;28;20032;-82
2021/12/17 04:38:44;;;;;;;8.57;3.83;;;4.70;99.90;;;;;;5038448;28;20028;-82
2021/12/17 04:43:52;;;;;;;8.23;3.13;;;4.70;99.90;;;;;;5056000;28;20024;-83
2021/12/17 04:46:35;;;;;;;8.00;3.50;;;4.80;99.90;;;;;;5039184;28;20039;-82
2021/12/17 04:57:35;;;;;;;7.87;3.37;;;4.70;99.90;;;;;;5054832;28;20554;-82
2021/12/17 05:00:04;;;;;;;6.97;3.43;;;4.70;99.90;;;;;;5037724;28;20017;-82
2021/12/17 05:02:35;;;;;;;11.27;3.93;;;4.70;99.90;;;;;;5037428;28;20488;-82
2021/12/17 05:05:06;;;;;;;8.30;3.97;;;4.70;99.90;;;;;;5038464;28;20021;-83
2021/12/17 05:07:35;;;;;;;9.23;4.20;;;4.70;99.90;;;;;;5038146;28;20021;-83
2021/12/17 05:10:12;;;;;;;10.17;3.73;;;4.70;99.90;;;;;;5057056;28;20550;-82
2021/12/17 05:20:55;;;;;;;6.93;3.43;;;4.70;99.90;;;;;;5063155;28;20024;-85
2021/12/17 05:23:29;;;;;;;7.90;3.67;;;4.70;99.90;;;;;;5044076;28;20025;-83
2021/12/17 05:25:55;;;;;;;6.83;3.50;;;4.70;99.90;;;;;;5043575;28;20028;-82
2021/12/17 05:28:20;;;;;;;6.47;3.40;;;4.70;99.90;;;;;;5043470;28;20024;-83
2021/12/17 05:30:47;;;;;;;7.10;3.40;;;4.70;99.90;;;;;;5043785;28;20024;-82
2021/12/17 05:33:18;;;;;;;6.30;2.83;;;4.70;99.90;;;;;;5039070;28;20107;-84
2021/12/17 05:35:44;;;;;;;7.97;3.63;;;4.60;99.90;;;;;;5031207;28;20036;-82
2021/12/17 05:38:11;;;;;;;7.07;3.40;;;4.70;99.90;;;;;;5047559;28;20655;-83
2021/12/17 05:40:38;;;;;;;7.33;3.83;;;4.70;99.90;;;;;;5035472;28;20053;-83
2021/12/17 05:43:05;;;;;;;7.00;3.50;;;4.60;99.90;;;;;;5050463;28;20116;-83
2021/12/17 05:45:36;;;;;;;6.37;3.30;;;4.60;99.90;;;;;;5034468;28;20021;-83
2021/12/17 05:48:07;;;;;;;5.90;3.03;;;4.60;99.90;;;;;;5053689;28;20025;-83
2021/12/17 05:50:35;;;;;;;9.60;3.33;;;4.60;99.90;;;;;;5034388;28;20021;-83
2021/12/17 05:53:01;;;;;;;7.57;3.67;;;4.70;99.90;;;;;;5033458;28;20029;-83
2021/12/17 05:55:28;;;;;;;7.83;3.73;;;4.60;99.90;;;;;;5052763;28;20101;-83
2021/12/17 05:57:53;;;;;;;6.47;3.13;;;4.60;99.90;;;;;;5035457;28;20400;-83
2021/12/17 06:00:21;;;;;;;6.47;3.20;;;4.60;99.90;;;;;;5036607;28;20024;-84
2021/12/17 06:02:48;;;;;;;6.50;3.47;;;4.60;99.90;;;;;;5058860;28;20081;-84
2021/12/17 06:05:14;;;;;;;7.20;3.40;;;4.60;99.90;;;;;;5049364;28;20405;-83
2021/12/17 06:07:40;;;;;;;9.37;3.70;;;4.60;99.90;;;;;;5036615;28;20021;-83
2021/12/17 06:10:09;;;;;;;8.03;5.20;;;4.60;99.90;;;;;;5037276;28;20029;-87
2021/12/17 06:12:35;;;;;;;6.70;3.20;;;4.60;99.90;;;;;;5037158;28;20396;-85
2021/12/17 06:15:03;;;;;;;7.50;3.30;;;4.60;99.90;;;;;;5052243;28;20067;-85
2021/12/17 06:17:29;;;;;;;5.93;2.97;;;4.60;99.90;;;;;;5032613;28;20499;-86
2021/12/17 06:19:54;;;;;;;5.57;2.53;;;4.60;99.90;;;;;;5036265;28;20021;-86
2021/12/17 06:22:20;;;;;;;6.83;3.07;;;4.60;99.90;;;;;;5034426;28;20063;-86
2021/12/17 06:24:46;;;;;;;6.03;3.13;;;4.60;99.90;;;;;;5053036;28;20107;-85
2021/12/17 06:27:14;;;;;;;6.70;3.10;;;4.60;99.90;;;;;;5033757;28;20055;-85
2021/12/17 06:29:40;;;;;;;6.87;2.97;;;4.70;99.90;;;;;;5036176;28;20040;-86
2021/12/17 06:32:08;;;;;;;5.90;2.97;;;4.70;99.90;;;;;;5036316;28;20040;-86
2021/12/17 06:34:34;;;;;;;6.50;3.03;;;4.70;99.90;;;;;;5036295;28;20029;-85
2021/12/17 06:37:02;;;;;;;7.90;2.67;;;4.70;99.90;;;;;;5071026;22;20072;-89
2021/12/17 06:39:28;;;;;;;6.20;3.00;;;4.70;99.90;;;;;;5069448;28;20073;-91
2021/12/17 06:42:01;;;;;;;5.23;2.57;;;4.70;99.90;;;;;;5070513;28;20028;-91
2021/12/17 06:44:33;;;;;;;7.07;3.43;;;4.70;99.90;;;;;;5090304;28;20025;-91
2021/12/17 07:10:27;;;;;;;10.07;4.10;;;4.70;99.90;;;;;;5069144;28;20027;-90
2021/12/17 07:35:12;;;;;;;6.90;3.33;;;4.80;99.90;;;;;;5075275;28;20028;-93
2021/12/17 07:39:56;;;;;;;6.03;3.13;;;4.70;99.90;;;;;;5066368;28;20024;-90
2021/12/17 07:42:23;;;;;;;8.70;3.70;;;4.70;99.90;;;;;;5057089;28;20028;-89
2021/12/17 07:44:48;;;;;;;7.87;3.13;;;4.80;99.90;;;;;;5057233;28;20029;-90
2021/12/17 07:47:14;;;;;;;5.63;2.70;;;4.70;99.90;;;;;;5057340;28;20020;-89
2021/12/17 07:49:42;;;;;;;8.23;3.20;;;4.70;99.90;;;;;;5054385;28;20435;-90
2021/12/17 07:52:36;;;;;;;6.40;2.90;;;4.70;99.90;;;;;;5056992;28;20077;-90
2021/12/17 07:55:14;;;;;;;6.23;2.60;;;4.70;99.90;;;;;;5056727;28;20017;-90
2021/12/17 07:57:49;;;;;;;6.13;2.60;;;4.70;99.90;;;;;;5056590;28;20052;-90
2021/12/17 08:00:17;;;;;;;5.53;2.67;;;4.70;99.90;;;;;;5056198;28;20693;-90
2021/12/17 08:02:51;;;;;;;5.93;2.70;;;4.70;99.90;;;;;;5056396;28;20024;-90
2021/12/17 08:05:43;;;;;;;5.83;2.67;;;4.70;99.90;;;;;;5056955;28;20020;-90
2021/12/17 08:08:13;;;;;;;5.43;2.67;;;4.70;99.90;;;;;;5056599;28;20052;-91
2021/12/17 08:11:17;;;;;;;6.70;2.83;;;4.70;99.90;;;;;;5056552;28;20380;-89
2021/12/17 08:14:27;;;;;;;6.47;2.73;;;4.70;99.90;;;;;;5070973;28;20032;-88
2021/12/17 08:31:26;;;;;;;5.80;2.63;;;5.10;99.90;;;;;;5074634;28;20617;-89
2021/12/17 08:34:21;;;;;;;5.47;2.70;;;5.10;99.90;;;;;;5056342;28;20032;-91
2021/12/17 08:40:29;;;;;;;5.47;2.40;;;5.20;99.90;;;;;;4992531;28;20046;-89
2021/12/17 08:43:46;;;;;;;6.73;2.97;;;5.40;99.90;;;;;;4974360;28;20046;-90
2021/12/17 08:46:36;;;;;;;6.63;2.63;;;5.60;99.90;;;;;;4972998;28;20038;-90
2021/12/17 08:49:05;;;;;;;4.97;2.40;;;5.80;99.90;;;;;;4972287;28;20038;-90
2021/12/17 08:52:07;;;;;;;5.90;2.40;;;5.90;99.90;;;;;;5066005;28;20029;-89
2021/12/17 08:55:12;;;;;;;4.80;2.30;;;5.80;99.90;;;;;;5074152;28;20174;-90
2021/12/17 08:57:50;;;;;;;5.83;2.33;;;5.70;99.90;;;;;;5056302;28;20028;-90
2021/12/17 09:00:48;;;;;;;5.10;2.17;;;5.60;99.90;;;;;;5056976;28;20409;-90
2021/12/17 09:03:17;;;;;;;5.57;2.37;;;5.50;99.90;;;;;;5054698;28;20119;-90
2021/12/17 09:05:55;;;;;;;5.37;2.03;;;5.50;99.90;;;;;;5056283;28;20028;-91
2021/12/17 09:08:29;;;;;;;7.50;2.30;;;5.40;99.90;;;;;;5058751;28;20120;-92
2021/12/17 09:11:05;;;;;;;5.47;2.20;;;5.50;99.90;;;;;;5061132;28;20357;-90
2021/12/17 09:13:49;;;;;;;5.03;2.30;;;5.40;99.90;;;;;;5056555;28;20123;-89
2021/12/17 09:19:54;;;;;;;5.63;2.55;;;5.40;99.90;;;;;;4973252;28;20514;-89
2021/12/17 09:22:31;;;;;;;5.53;2.38;;;5.50;99.90;;;;;;5000784;28;20068;-89
2021/12/17 09:24:59;;;;;;;5.07;2.20;;;5.40;99.90;;;;;;5056621;28;20028;-90
2021/12/17 09:27:25;;;;;;;5.43;2.80;;;5.50;99.90;;;;;;5056208;28;20016;-91
2021/12/17 09:29:59;;;;;;;6.40;3.07;;;5.30;99.90;;;;;;5054274;28;20032;-91
2021/12/17 09:32:31;;;;;;;6.97;3.33;;;5.30;99.90;;;;;;5050986;28;20028;-90
2021/12/17 09:35:03;;;;;;;7.37;3.20;;;5.30;99.90;;;;;;5055567;28;20396;-90
2021/12/17 09:37:42;;;;;;;;;;;;;;;;;;;;;
2021/12/17 09:40:22;;;;;;;7.13;3.47;;;5.30;99.90;;;;;;5063562;28;20028;-90
2021/12/17 09:42:53;;;;;;;7.90;3.13;;;5.30;99.90;;;;;;5058746;28;20097;-90
2021/12/17 09:45:29;;;;;;;6.50;3.20;;;5.30;99.90;;;;;;5050152;28;20025;-90
2021/12/17 09:47:57;;;;;;;5.40;2.83;;;5.40;99.90;;;;;;5047603;28;20265;-91
2021/12/17 09:50:23;;;;;;;7.30;3.03;;;5.40;99.90;;;;;;5054584;28;20027;-91
2021/12/17 09:52:53;;;;;;;7.53;3.40;;;5.40;99.90;;;;;;5054299;28;20033;-90
2021/12/17 09:55:22;;;;;;;7.73;3.77;;;5.50;99.90;;;;;;5050729;28;20473;-90
2021/12/17 09:57:48;;;;;;;5.73;2.87;;;5.50;99.90;;;;;;5054762;28;20027;-91
2021/12/17 10:00:19;;;;;;;5.57;3.53;;;5.50;99.90;;;;;;5051949;28;20040;-90
2021/12/17 10:03:02;;;;;;;7.37;3.57;;;5.50;99.90;;;;;;5057447;28;20033;-91
2021/12/17 10:05:52;;;;;;;6.13;3.10;;;5.60;99.90;;;;;;5041874;28;20124;-91
2021/12/17 10:08:47;;;;;;;5.87;2.90;;;5.60;99.90;;;;;;5057726;28;20017;-91
2021/12/17 10:11:20;;;;;;;5.80;3.20;;;5.70;99.90;;;;;;5060005;28;20028;-90
2021/12/17 10:14:32;;;;;;;6.70;2.90;;;5.70;99.90;;;;;;5062621;28;20510;-90
2021/12/17 10:17:27;;;;;;;7.10;3.27;;;5.70;99.90;;;;;;5059132;28;20039;-91
2021/12/17 10:19:59;;;;;;;6.20;3.13;;;5.70;99.90;;;;;;5042443;28;20036;-91
2021/12/17 10:23:21;;;;;;;5.82;2.75;;;5.80;99.90;;;;;;5036454;28;20406;-91
2021/12/17 10:33:11;;;;;;;7.27;2.83;;;5.90;99.90;;;;;;5015944;28;20029;-90
2021/12/17 10:36:24;;;;;;;6.23;2.63;;;5.90;99.90;;;;;;5023287;28;20044;-91
2021/12/17 10:49:20;;;;;;;5.17;2.43;;;6.30;99.90;;;;;;5076630;28;20031;-90
2021/12/17 10:55:24;;;;;;;5.87;2.80;;;6.30;99.90;;;;;;5056431;28;20441;-90
2021/12/17 11:05:16;;;;;;;6.83;3.10;;;6.40;99.90;;;;;;5021514;28;20036;-91
2021/12/17 11:08:30;;;;;;;7.97;2.80;;;6.30;99.90;;;;;;5089771;22;20047;-90
2021/12/17 11:11:41;;;;;;;6.87;3.30;;;6.40;99.90;;;;;;5081939;28;20574;-90
2021/12/17 11:15:04;;;;;;;;;;;;;;;;;;;;;
2021/12/17 11:18:20;;;;;;;5.90;3.03;;;6.40;99.90;;;;;;4986694;28;20427;-91
2021/12/17 11:21:25;;;;;;;8.77;4.23;;;6.40;99.90;;;;;;4940026;28;20408;-90
2021/12/17 11:28:03;;;;;;;6.67;3.13;;;6.40;99.90;;;;;;4989556;28;20096;-91
2021/12/17 11:35:04;;;;;;;6.20;2.93;;;6.30;99.90;;;;;;4995342;28;20041;-90
2021/12/17 14:27:01;;;;;;;6.50;2.80;;;7.10;99.90;;;;;;3142887;22;20682;-88
2021/12/17 14:33:45;;;;;;;;;;;;;;;;;;;;;
2021/12/17 14:36:55;;;;;;;6.70;2.85;;;7.00;99.90;;;;;;5005258;28;20061;-89
2021/12/17 14:39:55;;;;;;;6.23;2.70;;;7.00;99.90;;;;;;5000118;28;20524;-88
2021/12/17 14:43:36;;;;;;;;;;;;;;;;;;;;;
2021/12/17 14:46:31;;;;;;;7.13;3.23;;;6.80;99.90;;;;;;5021055;28;20667;-89
2021/12/17 15:58:32;;;;;;;8.17;4.50;;;5.90;99.90;;;;;;5155437;27;20407;-85
2021/12/17 16:03:47;;;;;;;10.00;4.83;;;5.80;99.90;;;;;;5569809;22;20056;-84
2021/12/17 16:06:13;;;;;;;7.30;4.07;;;5.70;99.90;;;;;;5069629;28;20490;-86
2021/12/17 16:08:45;;;;;;;10.67;4.67;;;5.60;99.90;;;;;;5097916;28;20012;-86
2021/12/17 16:11:37;;;;;;;8.95;4.38;;;5.50;99.90;;;;;;5076046;28;20054;-87
2021/12/17 16:17:27;;;;;;;9.50;5.07;;;5.60;99.90;;;;;;5106145;28;20160;-86
2021/12/17 22:43:01;;;;;;;13.77;6.70;;;4.10;99.90;;;;;;4605757;22;20430;-90
2021/12/17 22:45:37;;;;;;;12.97;6.87;;;4.10;99.90;;;;;;5022100;28;20545;-90
2021/12/17 22:48:35;;;;;;;12.30;6.83;;;4.00;99.90;;;;;;5055279;28;20075;-89
2021/12/17 22:54:29;;;;;;;12.83;7.07;;;4.10;99.90;;;;;;5036384;28;20025;-90
2021/12/17 22:56:56;;;;;;;13.17;6.80;;;4.00;99.90;;;;;;5045735;28;20029;-90
2021/12/17 22:59:23;;;;;;;14.97;6.87;;;4.00;99.90;;;;;;5036661;28;20418;-89
2021/12/17 23:02:20;;;;;;;16.13;7.20;;;4.00;99.90;;;;;;5043322;28;20024;-91
2021/12/17 23:07:58;;;;;;;14.23;7.37;;;4.10;99.90;;;;;;5039872;28;20086;-90
2021/12/17 23:10:37;;;;;;;13.50;7.10;;;4.00;99.90;;;;;;5035415;28;20029;-91
2021/12/17 23:16:10;;;;;;;11.87;6.67;;;4.10;99.90;;;;;;5049606;28;20047;-90
2021/12/17 23:19:07;;;;;;;13.63;6.77;;;4.10;99.90;;;;;;5035730;28;20021;-89
2021/12/17 23:21:45;;;;;;;14.53;7.07;;;4.10;99.90;;;;;;5097452;22;20102;-91
2021/12/17 23:31:14;;;;;;;18.00;7.73;;;4.10;99.90;;;;;;4980477;28;20023;-88
2021/12/17 23:34:02;;;;;;;15.07;6.37;;;4.10;99.90;;;;;;5027455;28;20047;-88
2021/12/17 23:36:37;;;;;;;13.50;6.30;;;4.00;99.90;;;;;;5039473;28;20033;-88
2021/12/17 23:41:58;;;;;;;12.20;6.33;;;4.00;99.90;;;;;;5057482;28;20021;-88
2021/12/17 23:44:27;;;;;;;13.53;7.10;;;3.90;99.90;;;;;;5034562;28;20036;-87
2021/12/17 23:46:54;;;;;;;14.53;7.47;;;3.90;99.90;;;;;;5039003;28;20078;-88
2021/12/17 23:49:40;;;;;;;14.50;7.17;;;3.90;99.90;;;;;;5063034;28;20025;-87
2021/12/17 23:52:11;;;;;;;13.40;6.27;;;3.90;99.90;;;;;;5057800;28;20518;-87
2021/12/17 23:54:39;;;;;;;13.73;6.05;;;3.90;99.90;;;;;;5023813;28;20028;-88
2021/12/17 23:57:21;;;;;;;15.00;6.80;;;3.90;99.90;;;;;;5038055;28;20037;-88
